createdAt,value
2019-03-16T00:14:03.989Z,85.70
2019-03-16T00:44:07.830Z,89.20
2019-03-16T01:14:11.836Z,90.80
2019-03-16T01:44:17.376Z,76.50
2019-03-16T02:14:21.233Z,80.00
2019-03-16T02:44:25.017Z,77.30
2019-03-16T03:14:28.925Z,76.50
2019-03-16T03:44:32.693Z,71.00
2019-03-16T04:14:36.481Z,74.10
2019-03-16T04:44:40.309Z,72.20
2019-03-16T05:14:43.987Z,74.60
2019-03-16T05:44:47.707Z,78.90
2019-03-16T06:14:51.504Z,78.40
2019-03-16T06:44:55.306Z,78.70
2019-03-16T07:14:59.166Z,77.50
2019-03-16T07:45:08.298Z,76.20
2019-03-16T08:15:09.988Z,66.00
2019-03-16T08:45:13.807Z,57.60
2019-03-16T09:15:17.810Z,60.10
2019-03-16T09:45:21.730Z,53.70
2019-03-16T10:15:25.698Z,57.60
2019-03-16T10:45:29.426Z,47.60
2019-03-16T11:15:33.216Z,55.30
2019-03-16T11:45:37.117Z,53.30
2019-03-16T12:15:42.756Z,53.30
2019-03-16T12:45:46.631Z,55.00
2019-03-16T13:15:50.467Z,59.00
2019-03-16T13:45:54.315Z,54.10
2019-03-16T14:15:58.144Z,54.70
2019-03-16T14:46:02.048Z,53.70
2019-03-16T15:16:06.008Z,59.10
2019-03-16T15:46:09.775Z,64.20
2019-03-16T16:16:13.557Z,78.00
2019-03-16T16:46:18.508Z,89.80
2019-03-16T17:16:22.305Z,98.20
2019-03-16T17:46:26.180Z,99.50
2019-03-16T18:16:29.970Z,99.90
2019-03-16T18:46:33.941Z,99.90
2019-03-16T19:16:37.724Z,99.90
2019-03-16T19:46:41.612Z,99.90
2019-03-16T20:16:45.526Z,99.90
2019-03-16T20:46:49.696Z,99.90
2019-03-16T21:16:53.500Z,99.90
2019-03-16T21:46:57.272Z,99.90
2019-03-16T22:17:01.155Z,99.90
2019-03-16T22:47:04.959Z,99.90
2019-03-16T23:17:08.855Z,98.50
2019-03-16T23:47:12.709Z,98.20
